sensor_id;sensor_type;location;lat;lon;timestamp;P1;durP1;ratioP1;P2;durP2;ratioP2
1995;SDS011;38556;47.068;15.408;2023-07-31T00:00:43;16.20;;;15.50;;
1995;SDS011;38556;47.068;15.408;2023-07-31T00:03:12;16.33;;;15.63;;
1995;SDS011;38556;47.068;15.408;2023-07-31T00:05:40;16.80;;;16.00;;
1995;SDS011;38556;47.068;15.408;2023-07-31T00:08:09;16.50;;;15.20;;
1995;SDS011;38556;47.068;15.408;2023-07-31T00:10:36;16.40;;;15.60;;
1995;SDS011;38556;47.068;15.408;2023-07-31T00:13:03;16.20;;;15.50;;
1995;SDS011;38556;47.068;15.408;2023-07-31T00:15:31;16.43;;;15.63;;
1995;SDS011;38556;47.068;15.408;2023-07-31T00:17:58;16.50;;;15.50;;
1995;SDS011;38556;47.068;15.408;2023-07-31T00:20:27;16.27;;;15.37;;
1995;SDS011;38556;47.068;15.408;2023-07-31T00:22:55;16.00;;;15.10;;
1995;SDS011;38556;47.068;15.408;2023-07-31T00:25:23;16.40;;;15.70;;
1995;SDS011;38556;47.068;15.408;2023-07-31T00:27:50;16.20;;;15.50;;
1995;SDS011;38556;47.068;15.408;2023-07-31T00:30:17;16.07;;;14.90;;
1995;SDS011;38556;47.068;15.408;2023-07-31T00:32:45;15.43;;;14.73;;
1995;SDS011;38556;47.068;15.408;2023-07-31T00:35:12;16.13;;;15.37;;
1995;SDS011;38556;47.068;15.408;2023-07-31T00:37:39;16.30;;;15.50;;
1995;SDS011;38556;47.068;15.408;2023-07-31T00:40:09;16.07;;;15.37;;
1995;SDS011;38556;47.068;15.408;2023-07-31T00:42:36;16.20;;;15.47;;
1995;SDS011;38556;47.068;15.408;2023-07-31T00:45:04;16.70;;;15.90;;
1995;SDS011;38556;47.068;15.408;2023-07-31T00:47:32;16.47;;;15.50;;
1995;SDS011;38556;47.068;15.408;2023-07-31T00:50:00;16.93;;;15.73;;
1995;SDS011;38556;47.068;15.408;2023-07-31T00:52:27;16.60;;;15.70;;
1995;SDS011;38556;47.068;15.408;2023-07-31T00:54:54;16.33;;;15.63;;
1995;SDS011;38556;47.068;15.408;2023-07-31T00:57:23;16.67;;;15.77;;
1995;SDS011;38556;47.068;15.408;2023-07-31T00:59:51;16.03;;;15.33;;
1995;SDS011;38556;47.068;15.408;2023-07-31T01:02:18;17.17;;;16.30;;
1995;SDS011;38556;47.068;15.408;2023-07-31T01:04:45;16.30;;;15.60;;
1995;SDS011;38556;47.068;15.408;2023-07-31T01:07:14;16.13;;;15.33;;
1995;SDS011;38556;47.068;15.408;2023-07-31T01:09:49;16.97;;;16.03;;
1995;SDS011;38556;47.068;15.408;2023-07-31T01:12:26;17.30;;;16.40;;
1995;SDS011;38556;47.068;15.408;2023-07-31T01:15:02;17.70;;;16.90;;
1995;SDS011;38556;47.068;15.408;2023-07-31T01:17:31;16.50;;;15.60;;
1995;SDS011;38556;47.068;15.408;2023-07-31T01:19:59;17.07;;;16.17;;
1995;SDS011;38556;47.068;15.408;2023-07-31T01:22:33;17.03;;;16.00;;
1995;SDS011;38556;47.068;15.408;2023-07-31T01:25:32;16.20;;;15.50;;
1995;SDS011;38556;47.068;15.408;2023-07-31T01:28:19;16.47;;;15.70;;
1995;SDS011;38556;47.068;15.408;2023-07-31T01:30:52;16.60;;;15.80;;
1995;SDS011;38556;47.068;15.408;2023-07-31T01:33:23;16.67;;;15.67;;
1995;SDS011;38556;47.068;15.408;2023-07-31T01:35:50;16.87;;;16.03;;
1995;SDS011;38556;47.068;15.408;2023-07-31T01:38:20;16.80;;;15.70;;
1995;SDS011;38556;47.068;15.408;2023-07-31T01:40:52;16.33;;;15.53;;
1995;SDS011;38556;47.068;15.408;2023-07-31T01:43:19;16.97;;;15.77;;
1995;SDS011;38556;47.068;15.408;2023-07-31T01:45:47;16.60;;;15.80;;
1995;SDS011;38556;47.068;15.408;2023-07-31T01:48:14;16.47;;;15.40;;
1995;SDS011;38556;47.068;15.408;2023-07-31T01:50:41;15.87;;;15.07;;
1995;SDS011;38556;47.068;15.408;2023-07-31T01:53:08;15.93;;;15.03;;
1995;SDS011;38556;47.068;15.408;2023-07-31T01:55:37;16.50;;;15.60;;
1995;SDS011;38556;47.068;15.408;2023-07-31T01:58:05;16.03;;;15.33;;
1995;SDS011;38556;47.068;15.408;2023-07-31T02:00:33;17.10;;;16.30;;
1995;SDS011;38556;47.068;15.408;2023-07-31T02:03:00;16.93;;;16.13;;
1995;SDS011;38556;47.068;15.408;2023-07-31T02:05:28;16.87;;;16.00;;
1995;SDS011;38556;47.068;15.408;2023-07-31T02:07:55;17.07;;;15.93;;
1995;SDS011;38556;47.068;15.408;2023-07-31T02:10:22;16.50;;;15.80;;
1995;SDS011;38556;47.068;15.408;2023-07-31T02:12:49;16.20;;;15.30;;
1995;SDS011;38556;47.068;15.408;2023-07-31T02:15:18;16.37;;;15.50;;
1995;SDS011;38556;47.068;15.408;2023-07-31T02:17:46;16.50;;;15.70;;
1995;SDS011;38556;47.068;15.408;2023-07-31T02:20:14;16.63;;;15.63;;
1995;SDS011;38556;47.068;15.408;2023-07-31T02:22:41;16.40;;;15.50;;
1995;SDS011;38556;47.068;15.408;2023-07-31T02:25:08;16.17;;;15.37;;
1995;SDS011;38556;47.068;15.408;2023-07-31T02:27:36;16.90;;;16.10;;
1995;SDS011;38556;47.068;15.408;2023-07-31T02:30:03;16.10;;;15.13;;
1995;SDS011;38556;47.068;15.408;2023-07-31T02:32:32;15.90;;;15.10;;
1995;SDS011;38556;47.068;15.408;2023-07-31T02:34:59;15.73;;;15.03;;
1995;SDS011;38556;47.068;15.408;2023-07-31T02:37:26;16.00;;;15.20;;
1995;SDS011;38556;47.068;15.408;2023-07-31T02:39:55;16.77;;;15.93;;
1995;SDS011;38556;47.068;15.408;2023-07-31T02:42:22;16.10;;;15.30;;
1995;SDS011;38556;47.068;15.408;2023-07-31T02:44:49;16.57;;;15.80;;
1995;SDS011;38556;47.068;15.408;2023-07-31T02:47:21;15.93;;;15.23;;
1995;SDS011;38556;47.068;15.408;2023-07-31T02:49:50;16.77;;;15.77;;
1995;SDS011;38556;47.068;15.408;2023-07-31T02:52:17;15.90;;;14.97;;
1995;SDS011;38556;47.068;15.408;2023-07-31T02:54:45;17.43;;;16.33;;
1995;SDS011;38556;47.068;15.408;2023-07-31T02:57:12;16.83;;;15.93;;
1995;SDS011;38556;47.068;15.408;2023-07-31T02:59:39;16.50;;;15.80;;
1995;SDS011;38556;47.068;15.408;2023-07-31T03:02:07;17.60;;;16.60;;
1995;SDS011;38556;47.068;15.408;2023-07-31T03:04:34;17.03;;;16.23;;
1995;SDS011;38556;47.068;15.408;2023-07-31T03:07:03;17.43;;;16.43;;
1995;SDS011;38556;47.068;15.408;2023-07-31T03:09:31;17.10;;;16.20;;
1995;SDS011;38556;47.068;15.408;2023-07-31T03:11:58;18.40;;;17.50;;
1995;SDS011;38556;47.068;15.408;2023-07-31T03:14:25;17.43;;;16.40;;
1995;SDS011;38556;47.068;15.408;2023-07-31T03:16:53;17.43;;;16.47;;
1995;SDS011;38556;47.068;15.408;2023-07-31T03:19:20;17.53;;;16.70;;
1995;SDS011;38556;47.068;15.408;2023-07-31T03:21:47;17.20;;;15.93;;
1995;SDS011;38556;47.068;15.408;2023-07-31T03:24:16;17.40;;;16.40;;
1995;SDS011;38556;47.068;15.408;2023-07-31T03:26:43;17.20;;;16.20;;
1995;SDS011;38556;47.068;15.408;2023-07-31T03:29:10;16.80;;;16.00;;
1995;SDS011;38556;47.068;15.408;2023-07-31T03:31:37;17.70;;;16.67;;
1995;SDS011;38556;47.068;15.408;2023-07-31T03:34:05;17.60;;;16.60;;
1995;SDS011;38556;47.068;15.408;2023-07-31T03:36:32;17.40;;;16.43;;
1995;SDS011;38556;47.068;15.408;2023-07-31T03:39:00;16.63;;;15.83;;
1995;SDS011;38556;47.068;15.408;2023-07-31T03:41:28;17.07;;;16.27;;
1995;SDS011;38556;47.068;15.408;2023-07-31T03:43:55;17.03;;;16.20;;
1995;SDS011;38556;47.068;15.408;2023-07-31T03:46:23;17.67;;;16.40;;
1995;SDS011;38556;47.068;15.408;2023-07-31T03:48:50;17.13;;;16.33;;
1995;SDS011;38556;47.068;15.408;2023-07-31T03:51:18;16.30;;;15.50;;
1995;SDS011;38556;47.068;15.408;2023-07-31T03:53:45;17.90;;;16.70;;
1995;SDS011;38556;47.068;15.408;2023-07-31T03:56:13;16.27;;;15.30;;
1995;SDS011;38556;47.068;15.408;2023-07-31T03:58:41;17.23;;;16.40;;
1995;SDS011;38556;47.068;15.408;2023-07-31T04:01:09;18.07;;;17.17;;
1995;SDS011;38556;47.068;15.408;2023-07-31T04:03:36;19.07;;;17.97;;
1995;SDS011;38556;47.068;15.408;2023-07-31T04:06:04;17.73;;;16.67;;
1995;SDS011;38556;47.068;15.408;2023-07-31T04:08:32;18.40;;;17.40;;
1995;SDS011;38556;47.068;15.408;2023-07-31T04:10:59;17.60;;;16.60;;
1995;SDS011;38556;47.068;15.408;2023-07-31T04:13:26;17.40;;;16.60;;
1995;SDS011;38556;47.068;15.408;2023-07-31T04:15:58;17.77;;;16.77;;
1995;SDS011;38556;47.068;15.408;2023-07-31T04:18:25;17.70;;;16.80;;
1995;SDS011;38556;47.068;15.408;2023-07-31T04:20:52;16.97;;;15.80;;
1995;SDS011;38556;47.068;15.408;2023-07-31T04:23:19;17.53;;;16.63;;
1995;SDS011;38556;47.068;15.408;2023-07-31T04:25:47;17.93;;;16.87;;
1995;SDS011;38556;47.068;15.408;2023-07-31T04:28:14;17.37;;;16.37;;
1995;SDS011;38556;47.068;15.408;2023-07-31T04:30:41;16.30;;;15.47;;
1995;SDS011;38556;47.068;15.408;2023-07-31T04:33:10;17.30;;;16.30;;
1995;SDS011;38556;47.068;15.408;2023-07-31T04:35:38;17.70;;;16.50;;
1995;SDS011;38556;47.068;15.408;2023-07-31T04:38:05;17.30;;;16.47;;
1995;SDS011;38556;47.068;15.408;2023-07-31T04:40:33;17.40;;;16.40;;
1995;SDS011;38556;47.068;15.408;2023-07-31T04:42:59;18.20;;;16.90;;
1995;SDS011;38556;47.068;15.408;2023-07-31T04:45:27;18.30;;;17.17;;
1995;SDS011;38556;47.068;15.408;2023-07-31T04:47:54;17.70;;;16.70;;
1995;SDS011;38556;47.068;15.408;2023-07-31T04:50:23;17.77;;;16.87;;
1995;SDS011;38556;47.068;15.408;2023-07-31T04:52:50;18.17;;;17.07;;
1995;SDS011;38556;47.068;15.408;2023-07-31T04:55:18;18.50;;;17.40;;
1995;SDS011;38556;47.068;15.408;2023-07-31T04:57:45;17.00;;;16.10;;
1995;SDS011;38556;47.068;15.408;2023-07-31T05:00:12;18.40;;;17.40;;
1995;SDS011;38556;47.068;15.408;2023-07-31T05:02:40;17.33;;;16.43;;
1995;SDS011;38556;47.068;15.408;2023-07-31T05:05:07;17.10;;;16.00;;
1995;SDS011;38556;47.068;15.408;2023-07-31T05:07:36;18.30;;;17.10;;
1995;SDS011;38556;47.068;15.408;2023-07-31T05:10:03;18.33;;;16.80;;
1995;SDS011;38556;47.068;15.408;2023-07-31T05:12:31;17.40;;;16.40;;
1995;SDS011;38556;47.068;15.408;2023-07-31T05:14:58;18.00;;;17.10;;
1995;SDS011;38556;47.068;15.408;2023-07-31T05:17:26;18.40;;;17.27;;
1995;SDS011;38556;47.068;15.408;2023-07-31T05:19:53;18.60;;;17.40;;
1995;SDS011;38556;47.068;15.408;2023-07-31T05:22:21;18.80;;;17.60;;
1995;SDS011;38556;47.068;15.408;2023-07-31T05:24:49;18.57;;;17.47;;
1995;SDS011;38556;47.068;15.408;2023-07-31T05:27:17;17.80;;;16.80;;
1995;SDS011;38556;47.068;15.408;2023-07-31T05:29:44;18.23;;;17.23;;
1995;SDS011;38556;47.068;15.408;2023-07-31T05:32:12;18.30;;;17.30;;
1995;SDS011;38556;47.068;15.408;2023-07-31T05:34:39;18.50;;;17.53;;
1995;SDS011;38556;47.068;15.408;2023-07-31T05:37:06;18.67;;;17.73;;
1995;SDS011;38556;47.068;15.408;2023-07-31T05:39:33;19.50;;;18.20;;
1995;SDS011;38556;47.068;15.408;2023-07-31T05:42:03;19.23;;;18.07;;
1995;SDS011;38556;47.068;15.408;2023-07-31T05:44:30;18.30;;;17.30;;
1995;SDS011;38556;47.068;15.408;2023-07-31T05:46:58;21.00;;;19.70;;
1995;SDS011;38556;47.068;15.408;2023-07-31T05:49:25;22.47;;;20.47;;
1995;SDS011;38556;47.068;15.408;2023-07-31T05:51:52;19.37;;;18.20;;
1995;SDS011;38556;47.068;15.408;2023-07-31T05:54:20;19.93;;;18.50;;
1995;SDS011;38556;47.068;15.408;2023-07-31T05:56:47;20.67;;;19.47;;
1995;SDS011;38556;47.068;15.408;2023-07-31T05:59:16;19.10;;;17.90;;
1995;SDS011;38556;47.068;15.408;2023-07-31T06:01:43;20.20;;;19.00;;
1995;SDS011;38556;47.068;15.408;2023-07-31T06:04:11;18.93;;;17.93;;
1995;SDS011;38556;47.068;15.408;2023-07-31T06:06:38;19.23;;;18.03;;
1995;SDS011;38556;47.068;15.408;2023-07-31T06:09:07;17.90;;;17.00;;
1995;SDS011;38556;47.068;15.408;2023-07-31T06:11:34;19.23;;;18.20;;
1995;SDS011;38556;47.068;15.408;2023-07-31T06:14:01;19.20;;;17.97;;
1995;SDS011;38556;47.068;15.408;2023-07-31T06:16:30;18.83;;;17.83;;
1995;SDS011;38556;47.068;15.408;2023-07-31T06:18:57;19.90;;;18.70;;
1995;SDS011;38556;47.068;15.408;2023-07-31T06:21:24;18.60;;;17.60;;
1995;SDS011;38556;47.068;15.408;2023-07-31T06:23:52;19.43;;;18.20;;
1995;SDS011;38556;47.068;15.408;2023-07-31T06:26:19;19.60;;;18.40;;
1995;SDS011;38556;47.068;15.408;2023-07-31T06:28:47;19.47;;;18.20;;
1995;SDS011;38556;47.068;15.408;2023-07-31T06:31:14;19.57;;;18.33;;
1995;SDS011;38556;47.068;15.408;2023-07-31T06:33:42;20.20;;;18.70;;
1995;SDS011;38556;47.068;15.408;2023-07-31T06:36:10;20.93;;;19.40;;
1995;SDS011;38556;47.068;15.408;2023-07-31T06:38:37;19.20;;;17.80;;
1995;SDS011;38556;47.068;15.408;2023-07-31T06:41:04;19.37;;;18.27;;
1995;SDS011;38556;47.068;15.408;2023-07-31T06:43:31;20.33;;;19.13;;
1995;SDS011;38556;47.068;15.408;2023-07-31T06:45:59;20.13;;;19.13;;
1995;SDS011;38556;47.068;15.408;2023-07-31T06:48:30;21.27;;;20.10;;
1995;SDS011;38556;47.068;15.408;2023-07-31T06:51:00;18.43;;;17.53;;
1995;SDS011;38556;47.068;15.408;2023-07-31T06:53:27;19.30;;;18.10;;
1995;SDS011;38556;47.068;15.408;2023-07-31T06:55:55;19.67;;;18.50;;
1995;SDS011;38556;47.068;15.408;2023-07-31T06:58:22;19.13;;;18.03;;
1995;SDS011;38556;47.068;15.408;2023-07-31T07:00:50;18.87;;;17.83;;
1995;SDS011;38556;47.068;15.408;2023-07-31T07:03:18;19.50;;;18.33;;
1995;SDS011;38556;47.068;15.408;2023-07-31T07:05:46;18.80;;;17.80;;
1995;SDS011;38556;47.068;15.408;2023-07-31T07:08:14;19.63;;;18.37;;
1995;SDS011;38556;47.068;15.408;2023-07-31T07:10:42;20.23;;;19.13;;
1995;SDS011;38556;47.068;15.408;2023-07-31T07:13:09;20.53;;;19.30;;
1995;SDS011;38556;47.068;15.408;2023-07-31T07:15:37;21.10;;;19.90;;
1995;SDS011;38556;47.068;15.408;2023-07-31T07:18:05;22.57;;;21.17;;
1995;SDS011;38556;47.068;15.408;2023-07-31T07:20:32;23.43;;;21.87;;
1995;SDS011;38556;47.068;15.408;2023-07-31T07:23:00;21.40;;;20.20;;
1995;SDS011;38556;47.068;15.408;2023-07-31T07:25:28;19.67;;;18.60;;
1995;SDS011;38556;47.068;15.408;2023-07-31T07:27:56;19.07;;;18.03;;
1995;SDS011;38556;47.068;15.408;2023-07-31T07:30:23;18.30;;;17.30;;
1995;SDS011;38556;47.068;15.408;2023-07-31T07:32:51;20.43;;;18.93;;
1995;SDS011;38556;47.068;15.408;2023-07-31T07:35:18;18.27;;;17.37;;
1995;SDS011;38556;47.068;15.408;2023-07-31T07:37:48;19.00;;;18.00;;
1995;SDS011;38556;47.068;15.408;2023-07-31T07:40:16;18.90;;;17.80;;
1995;SDS011;38556;47.068;15.408;2023-07-31T07:42:44;20.00;;;18.70;;
1995;SDS011;38556;47.068;15.408;2023-07-31T07:45:12;20.00;;;18.90;;
1995;SDS011;38556;47.068;15.408;2023-07-31T07:47:40;19.50;;;18.13;;
1995;SDS011;38556;47.068;15.408;2023-07-31T07:50:08;19.57;;;18.47;;
1995;SDS011;38556;47.068;15.408;2023-07-31T07:52:36;19.30;;;18.30;;
1995;SDS011;38556;47.068;15.408;2023-07-31T07:55:04;20.17;;;18.97;;
1995;SDS011;38556;47.068;15.408;2023-07-31T07:57:32;19.60;;;18.60;;
1995;SDS011;38556;47.068;15.408;2023-07-31T08:00:00;19.33;;;18.27;;
1995;SDS011;38556;47.068;15.408;2023-07-31T08:02:27;19.17;;;18.27;;
1995;SDS011;38556;47.068;15.408;2023-07-31T08:04:55;19.43;;;18.23;;
1995;SDS011;38556;47.068;15.408;2023-07-31T08:07:22;21.77;;;20.57;;
1995;SDS011;38556;47.068;15.408;2023-07-31T08:09:50;18.30;;;17.40;;
1995;SDS011;38556;47.068;15.408;2023-07-31T08:12:17;16.93;;;16.13;;
1995;SDS011;38556;47.068;15.408;2023-07-31T08:14:44;17.97;;;17.17;;
1995;SDS011;38556;47.068;15.408;2023-07-31T08:17:13;18.93;;;17.20;;
1995;SDS011;38556;47.068;15.408;2023-07-31T08:19:40;18.03;;;17.13;;
1995;SDS011;38556;47.068;15.408;2023-07-31T08:22:08;19.43;;;18.23;;
1995;SDS011;38556;47.068;15.408;2023-07-31T08:24:35;18.60;;;17.50;;
1995;SDS011;38556;47.068;15.408;2023-07-31T08:27:02;19.40;;;18.40;;
1995;SDS011;38556;47.068;15.408;2023-07-31T08:29:30;19.67;;;18.57;;
1995;SDS011;38556;47.068;15.408;2023-07-31T08:31:57;19.57;;;18.33;;
1995;SDS011;38556;47.068;15.408;2023-07-31T08:34:26;19.13;;;17.90;;
1995;SDS011;38556;47.068;15.408;2023-07-31T08:36:53;18.90;;;18.00;;
1995;SDS011;38556;47.068;15.408;2023-07-31T08:39:20;18.73;;;17.73;;
1995;SDS011;38556;47.068;15.408;2023-07-31T08:41:48;18.13;;;17.23;;
1995;SDS011;38556;47.068;15.408;2023-07-31T08:44:15;17.63;;;16.73;;
1995;SDS011;38556;47.068;15.408;2023-07-31T08:46:44;17.70;;;16.80;;
1995;SDS011;38556;47.068;15.408;2023-07-31T08:49:12;18.17;;;17.27;;
1995;SDS011;38556;47.068;15.408;2023-07-31T08:51:42;18.17;;;17.23;;
1995;SDS011;38556;47.068;15.408;2023-07-31T08:54:09;19.00;;;17.90;;
1995;SDS011;38556;47.068;15.408;2023-07-31T08:56:37;18.83;;;17.67;;
1995;SDS011;38556;47.068;15.408;2023-07-31T08:59:06;18.87;;;17.70;;
1995;SDS011;38556;47.068;15.408;2023-07-31T09:01:35;18.23;;;17.23;;
1995;SDS011;38556;47.068;15.408;2023-07-31T09:04:03;18.27;;;17.20;;
1995;SDS011;38556;47.068;15.408;2023-07-31T09:06:32;18.37;;;17.47;;
1995;SDS011;38556;47.068;15.408;2023-07-31T09:09:01;18.07;;;17.10;;
1995;SDS011;38556;47.068;15.408;2023-07-31T09:11:29;17.93;;;17.03;;
1995;SDS011;38556;47.068;15.408;2023-07-31T09:13:57;18.60;;;17.53;;
1995;SDS011;38556;47.068;15.408;2023-07-31T09:16:27;18.37;;;17.47;;
1995;SDS011;38556;47.068;15.408;2023-07-31T09:18:57;18.93;;;17.70;;
1995;SDS011;38556;47.068;15.408;2023-07-31T09:21:27;17.83;;;17.03;;
1995;SDS011;38556;47.068;15.408;2023-07-31T09:23:55;18.30;;;17.40;;
1995;SDS011;38556;47.068;15.408;2023-07-31T09:26:30;18.60;;;17.70;;
1995;SDS011;38556;47.068;15.408;2023-07-31T09:28:58;19.67;;;17.90;;
1995;SDS011;38556;47.068;15.408;2023-07-31T09:31:32;17.70;;;16.90;;
1995;SDS011;38556;47.068;15.408;2023-07-31T09:34:10;18.70;;;17.80;;
1995;SDS011;38556;47.068;15.408;2023-07-31T09:36:40;18.40;;;17.50;;
1995;SDS011;38556;47.068;15.408;2023-07-31T09:39:08;18.17;;;17.20;;
1995;SDS011;38556;47.068;15.408;2023-07-31T09:41:38;17.50;;;16.60;;
1995;SDS011;38556;47.068;15.408;2023-07-31T09:44:06;18.37;;;17.47;;
1995;SDS011;38556;47.068;15.408;2023-07-31T09:46:34;18.10;;;17.30;;
1995;SDS011;38556;47.068;15.408;2023-07-31T09:49:03;17.90;;;17.10;;
1995;SDS011;38556;47.068;15.408;2023-07-31T09:51:32;17.57;;;16.73;;
1995;SDS011;38556;47.068;15.408;2023-07-31T09:54:03;18.50;;;17.50;;
1995;SDS011;38556;47.068;15.408;2023-07-31T09:56:36;18.30;;;17.50;;
1995;SDS011;38556;47.068;15.408;2023-07-31T09:59:07;16.97;;;16.27;;
1995;SDS011;38556;47.068;15.408;2023-07-31T10:01:37;17.80;;;17.00;;
1995;SDS011;38556;47.068;15.408;2023-07-31T10:04:05;18.90;;;17.90;;
1995;SDS011;38556;47.068;15.408;2023-07-31T10:06:35;17.63;;;16.83;;
1995;SDS011;38556;47.068;15.408;2023-07-31T10:09:03;18.77;;;17.77;;
1995;SDS011;38556;47.068;15.408;2023-07-31T10:11:34;17.27;;;16.37;;
1995;SDS011;38556;47.068;15.408;2023-07-31T10:14:07;18.03;;;17.03;;
1995;SDS011;38556;47.068;15.408;2023-07-31T10:16:37;18.60;;;17.63;;
1995;SDS011;38556;47.068;15.408;2023-07-31T10:19:06;18.57;;;17.67;;
1995;SDS011;38556;47.068;15.408;2023-07-31T10:21:34;17.93;;;17.03;;
1995;SDS011;38556;47.068;15.408;2023-07-31T10:24:04;19.67;;;18.57;;
1995;SDS011;38556;47.068;15.408;2023-07-31T10:26:31;17.80;;;16.90;;
1995;SDS011;38556;47.068;15.408;2023-07-31T10:29:00;18.43;;;17.53;;
1995;SDS011;38556;47.068;15.408;2023-07-31T10:31:28;17.73;;;16.77;;
1995;SDS011;38556;47.068;15.408;2023-07-31T10:33:56;17.80;;;16.83;;
1995;SDS011;38556;47.068;15.408;2023-07-31T10:36:24;18.40;;;17.50;;
1995;SDS011;38556;47.068;15.408;2023-07-31T10:38:52;18.23;;;17.43;;
1995;SDS011;38556;47.068;15.408;2023-07-31T10:41:27;17.63;;;16.83;;
1995;SDS011;38556;47.068;15.408;2023-07-31T10:43:59;17.80;;;16.90;;
1995;SDS011;38556;47.068;15.408;2023-07-31T10:46:28;18.43;;;17.53;;
1995;SDS011;38556;47.068;15.408;2023-07-31T10:49:00;18.17;;;17.17;;
1995;SDS011;38556;47.068;15.408;2023-07-31T10:51:34;18.50;;;17.53;;
1995;SDS011;38556;47.068;15.408;2023-07-31T10:54:12;19.50;;;18.40;;
1995;SDS011;38556;47.068;15.408;2023-07-31T10:56:40;17.77;;;16.87;;
1995;SDS011;38556;47.068;15.408;2023-07-31T10:59:12;17.40;;;16.40;;
1995;SDS011;38556;47.068;15.408;2023-07-31T11:01:53;17.57;;;16.50;;
1995;SDS011;38556;47.068;15.408;2023-07-31T11:04:23;18.10;;;17.20;;
1995;SDS011;38556;47.068;15.408;2023-07-31T11:06:55;17.50;;;16.70;;
1995;SDS011;38556;47.068;15.408;2023-07-31T11:09:24;17.30;;;16.50;;
1995;SDS011;38556;47.068;15.408;2023-07-31T11:11:54;17.03;;;16.13;;
1995;SDS011;38556;47.068;15.408;2023-07-31T11:14:22;17.13;;;16.33;;
1995;SDS011;38556;47.068;15.408;2023-07-31T11:16:49;18.27;;;17.17;;
1995;SDS011;38556;47.068;15.408;2023-07-31T11:19:22;17.60;;;16.70;;
1995;SDS011;38556;47.068;15.408;2023-07-31T11:21:50;17.43;;;16.43;;
1995;SDS011;38556;47.068;15.408;2023-07-31T11:24:17;20.80;;;19.70;;
1995;SDS011;38556;47.068;15.408;2023-07-31T11:26:48;18.00;;;17.20;;
1995;SDS011;38556;47.068;15.408;2023-07-31T11:29:17;18.20;;;17.20;;
1995;SDS011;38556;47.068;15.408;2023-07-31T11:31:44;17.47;;;16.67;;
1995;SDS011;38556;47.068;15.408;2023-07-31T11:34:13;17.67;;;16.67;;
1995;SDS011;38556;47.068;15.408;2023-07-31T11:36:42;18.10;;;17.20;;
1995;SDS011;38556;47.068;15.408;2023-07-31T11:39:20;17.47;;;16.57;;
1995;SDS011;38556;47.068;15.408;2023-07-31T11:41:47;17.73;;;16.90;;
1995;SDS011;38556;47.068;15.408;2023-07-31T11:44:14;18.60;;;17.50;;
1995;SDS011;38556;47.068;15.408;2023-07-31T11:46:42;18.00;;;17.20;;
1995;SDS011;38556;47.068;15.408;2023-07-31T11:49:09;17.90;;;16.80;;
1995;SDS011;38556;47.068;15.408;2023-07-31T11:51:37;18.10;;;17.20;;
1995;SDS011;38556;47.068;15.408;2023-07-31T11:54:05;17.83;;;16.90;;
1995;SDS011;38556;47.068;15.408;2023-07-31T11:56:33;19.20;;;18.10;;
1995;SDS011;38556;47.068;15.408;2023-07-31T11:59:00;17.83;;;16.93;;
1995;SDS011;38556;47.068;15.408;2023-07-31T12:01:31;17.17;;;16.13;;
1995;SDS011;38556;47.068;15.408;2023-07-31T12:03:58;17.47;;;16.53;;
1995;SDS011;38556;47.068;15.408;2023-07-31T12:06:32;17.80;;;16.90;;
1995;SDS011;38556;47.068;15.408;2023-07-31T12:09:01;18.00;;;17.10;;
1995;SDS011;38556;47.068;15.408;2023-07-31T12:11:31;18.57;;;17.60;;
1995;SDS011;38556;47.068;15.408;2023-07-31T12:14:18;18.00;;;17.00;;
1995;SDS011;38556;47.068;15.408;2023-07-31T12:16:47;18.03;;;17.13;;
1995;SDS011;38556;47.068;15.408;2023-07-31T12:19:14;17.77;;;16.90;;
1995;SDS011;38556;47.068;15.408;2023-07-31T12:21:41;17.40;;;16.60;;
1995;SDS011;38556;47.068;15.408;2023-07-31T12:24:08;17.87;;;16.97;;
1995;SDS011;38556;47.068;15.408;2023-07-31T12:26:37;17.43;;;16.43;;
1995;SDS011;38556;47.068;15.408;2023-07-31T12:29:05;18.50;;;17.60;;
1995;SDS011;38556;47.068;15.408;2023-07-31T12:31:34;18.80;;;17.90;;
1995;SDS011;38556;47.068;15.408;2023-07-31T12:34:02;18.73;;;17.47;;
1995;SDS011;38556;47.068;15.408;2023-07-31T12:36:29;17.77;;;16.97;;
1995;SDS011;38556;47.068;15.408;2023-07-31T12:39:00;17.37;;;16.47;;
1995;SDS011;38556;47.068;15.408;2023-07-31T12:41:28;17.47;;;16.67;;
1995;SDS011;38556;47.068;15.408;2023-07-31T12:43:57;17.97;;;17.07;;
1995;SDS011;38556;47.068;15.408;2023-07-31T12:46:24;19.30;;;18.20;;
1995;SDS011;38556;47.068;15.408;2023-07-31T12:48:51;19.10;;;18.10;;
1995;SDS011;38556;47.068;15.408;2023-07-31T12:51:19;18.03;;;17.03;;
1995;SDS011;38556;47.068;15.408;2023-07-31T12:53:46;17.30;;;16.27;;
1995;SDS011;38556;47.068;15.408;2023-07-31T12:56:14;17.43;;;16.53;;
1995;SDS011;38556;47.068;15.408;2023-07-31T12:58:41;17.43;;;16.63;;
1995;SDS011;38556;47.068;15.408;2023-07-31T13:01:10;17.80;;;16.90;;
1995;SDS011;38556;47.068;15.408;2023-07-31T13:03:37;18.33;;;17.47;;
1995;SDS011;38556;47.068;15.408;2023-07-31T13:06:04;17.47;;;16.67;;
1995;SDS011;38556;47.068;15.408;2023-07-31T13:08:32;17.10;;;16.30;;
1995;SDS011;38556;47.068;15.408;2023-07-31T13:10:59;17.63;;;16.83;;
1995;SDS011;38556;47.068;15.408;2023-07-31T13:13:26;20.30;;;19.17;;
1995;SDS011;38556;47.068;15.408;2023-07-31T13:15:55;18.40;;;17.30;;
1995;SDS011;38556;47.068;15.408;2023-07-31T13:18:23;17.53;;;16.73;;
1995;SDS011;38556;47.068;15.408;2023-07-31T13:20:51;17.10;;;16.30;;
1995;SDS011;38556;47.068;15.408;2023-07-31T13:23:18;18.10;;;17.07;;
1995;SDS011;38556;47.068;15.408;2023-07-31T13:25:45;18.27;;;17.37;;
1995;SDS011;38556;47.068;15.408;2023-07-31T13:28:12;16.73;;;16.03;;
1995;SDS011;38556;47.068;15.408;2023-07-31T13:30:40;18.20;;;17.30;;
1995;SDS011;38556;47.068;15.408;2023-07-31T13:33:07;16.57;;;15.87;;
1995;SDS011;38556;47.068;15.408;2023-07-31T13:35:36;17.40;;;16.50;;
1995;SDS011;38556;47.068;15.408;2023-07-31T13:38:03;16.77;;;16.00;;
1995;SDS011;38556;47.068;15.408;2023-07-31T13:40:31;17.60;;;16.80;;
1995;SDS011;38556;47.068;15.408;2023-07-31T13:42:58;18.37;;;17.37;;
1995;SDS011;38556;47.068;15.408;2023-07-31T13:45:26;16.87;;;16.07;;
1995;SDS011;38556;47.068;15.408;2023-07-31T13:47:53;16.73;;;15.90;;
1995;SDS011;38556;47.068;15.408;2023-07-31T13:50:20;17.50;;;16.60;;
1995;SDS011;38556;47.068;15.408;2023-07-31T13:52:49;17.00;;;16.10;;
1995;SDS011;38556;47.068;15.408;2023-07-31T13:55:16;18.50;;;17.57;;
1995;SDS011;38556;47.068;15.408;2023-07-31T13:57:43;18.00;;;17.10;;
1995;SDS011;38556;47.068;15.408;2023-07-31T14:00:12;17.30;;;16.37;;
1995;SDS011;38556;47.068;15.408;2023-07-31T14:02:39;18.00;;;17.07;;
1995;SDS011;38556;47.068;15.408;2023-07-31T14:05:08;18.20;;;17.40;;
1995;SDS011;38556;47.068;15.408;2023-07-31T14:07:35;18.53;;;17.53;;
1995;SDS011;38556;47.068;15.408;2023-07-31T14:10:05;17.00;;;16.20;;
1995;SDS011;38556;47.068;15.408;2023-07-31T14:12:32;18.03;;;17.03;;
1995;SDS011;38556;47.068;15.408;2023-07-31T14:14:59;23.70;;;22.40;;
1995;SDS011;38556;47.068;15.408;2023-07-31T14:17:27;17.47;;;16.57;;
1995;SDS011;38556;47.068;15.408;2023-07-31T14:19:54;16.90;;;16.10;;
1995;SDS011;38556;47.068;15.408;2023-07-31T14:22:27;17.77;;;16.70;;
1995;SDS011;38556;47.068;15.408;2023-07-31T14:24:55;18.63;;;17.57;;
1995;SDS011;38556;47.068;15.408;2023-07-31T14:27:24;17.90;;;16.83;;